sensor_id;sensor_type;location;lat;lon;timestamp;P1;durP1;ratioP1;P2;durP2;ratioP2
17504;SDS011;8870;50.950;11.762;2023-07-30T00:00:27;2.40;;;1.00;;
17504;SDS011;8870;50.950;11.762;2023-07-30T00:05:54;1.38;;;0.82;;
17504;SDS011;8870;50.950;11.762;2023-07-30T00:11:25;2.58;;;0.82;;
17504;SDS011;8870;50.950;11.762;2023-07-30T00:16:56;1.70;;;1.08;;
17504;SDS011;8870;50.950;11.762;2023-07-30T00:22:17;3.17;;;1.13;;
17504;SDS011;8870;50.950;11.762;2023-07-30T00:27:48;1.65;;;1.10;;
17504;SDS011;8870;50.950;11.762;2023-07-30T00:33:06;3.28;;;1.10;;
17504;SDS011;8870;50.950;11.762;2023-07-30T00:38:40;3.13;;;1.10;;
17504;SDS011;8870;50.950;11.762;2023-07-30T00:43:58;1.52;;;1.02;;
17504;SDS011;8870;50.950;11.762;2023-07-30T00:49:29;1.73;;;1.20;;
17504;SDS011;8870;50.950;11.762;2023-07-30T00:54:50;1.40;;;1.00;;
17504;SDS011;8870;50.950;11.762;2023-07-30T01:00:24;1.55;;;1.08;;
17504;SDS011;8870;50.950;11.762;2023-07-30T01:05:44;4.00;;;1.27;;
17504;SDS011;8870;50.950;11.762;2023-07-30T01:11:19;0.88;;;0.88;;
17504;SDS011;8870;50.950;11.762;2023-07-30T01:16:52;5.00;;;1.10;;
17504;SDS011;8870;50.950;11.762;2023-07-30T01:22:13;1.05;;;0.90;;
17504;SDS011;8870;50.950;11.762;2023-07-30T01:27:46;1.20;;;1.02;;
17504;SDS011;8870;50.950;11.762;2023-07-30T01:33:10;1.98;;;1.05;;
17504;SDS011;8870;50.950;11.762;2023-07-30T01:38:44;1.13;;;1.02;;
17504;SDS011;8870;50.950;11.762;2023-07-30T01:44:04;1.95;;;1.20;;
17504;SDS011;8870;50.950;11.762;2023-07-30T01:49:35;1.70;;;1.08;;
17504;SDS011;8870;50.950;11.762;2023-07-30T01:54:56;1.58;;;1.10;;
17504;SDS011;8870;50.950;11.762;2023-07-30T02:00:27;1.00;;;1.00;;
17504;SDS011;8870;50.950;11.762;2023-07-30T02:05:45;2.55;;;0.93;;
17504;SDS011;8870;50.950;11.762;2023-07-30T02:11:19;1.17;;;1.08;;
17504;SDS011;8870;50.950;11.762;2023-07-30T02:16:50;2.33;;;1.13;;
17504;SDS011;8870;50.950;11.762;2023-07-30T02:22:08;1.55;;;1.02;;
17504;SDS011;8870;50.950;11.762;2023-07-30T02:27:42;2.47;;;1.20;;
17504;SDS011;8870;50.950;11.762;2023-07-30T02:33:00;1.30;;;1.20;;
17504;SDS011;8870;50.950;11.762;2023-07-30T02:38:31;2.38;;;1.10;;
17504;SDS011;8870;50.950;11.762;2023-07-30T02:43:52;1.60;;;1.10;;
17504;SDS011;8870;50.950;11.762;2023-07-30T02:49:23;1.73;;;1.17;;
17504;SDS011;8870;50.950;11.762;2023-07-30T02:54:41;2.13;;;1.10;;
17504;SDS011;8870;50.950;11.762;2023-07-30T03:00:15;1.48;;;1.10;;
17504;SDS011;8870;50.950;11.762;2023-07-30T03:05:33;1.85;;;1.23;;
17504;SDS011;8870;50.950;11.762;2023-07-30T03:11:04;1.33;;;1.20;;
17504;SDS011;8870;50.950;11.762;2023-07-30T03:16:25;1.48;;;1.00;;
17504;SDS011;8870;50.950;11.762;2023-07-30T03:21:56;1.65;;;1.10;;
17504;SDS011;8870;50.950;11.762;2023-07-30T03:27:14;3.35;;;1.20;;
17504;SDS011;8870;50.950;11.762;2023-07-30T03:32:48;1.20;;;1.10;;
17504;SDS011;8870;50.950;11.762;2023-07-30T03:38:06;1.35;;;1.00;;
17504;SDS011;8870;50.950;11.762;2023-07-30T03:43:37;2.63;;;1.10;;
17504;SDS011;8870;50.950;11.762;2023-07-30T03:48:58;1.70;;;1.10;;
17504;SDS011;8870;50.950;11.762;2023-07-30T03:54:29;1.98;;;1.20;;
17504;SDS011;8870;50.950;11.762;2023-07-30T03:59:47;4.07;;;1.20;;
17504;SDS011;8870;50.950;11.762;2023-07-30T04:05:27;1.30;;;1.00;;
17504;SDS011;8870;50.950;11.762;2023-07-30T04:10:45;1.67;;;1.10;;
17504;SDS011;8870;50.950;11.762;2023-07-30T04:16:16;1.42;;;1.08;;
17504;SDS011;8870;50.950;11.762;2023-07-30T04:21:37;2.65;;;1.20;;
17504;SDS011;8870;50.950;11.762;2023-07-30T04:27:08;1.85;;;1.20;;
17504;SDS011;8870;50.950;11.762;2023-07-30T04:32:27;3.20;;;1.20;;
17504;SDS011;8870;50.950;11.762;2023-07-30T04:38:01;1.92;;;1.10;;
17504;SDS011;8870;50.950;11.762;2023-07-30T04:43:19;1.83;;;1.00;;
17504;SDS011;8870;50.950;11.762;2023-07-30T04:48:50;2.55;;;1.10;;
17504;SDS011;8870;50.950;11.762;2023-07-30T04:54:11;2.33;;;1.10;;
17504;SDS011;8870;50.950;11.762;2023-07-30T04:59:42;2.05;;;1.08;;
17504;SDS011;8870;50.950;11.762;2023-07-30T05:05:00;2.60;;;1.15;;
17504;SDS011;8870;50.950;11.762;2023-07-30T05:10:34;2.83;;;1.40;;
17504;SDS011;8870;50.950;11.762;2023-07-30T05:15:52;1.70;;;1.10;;
17504;SDS011;8870;50.950;11.762;2023-07-30T05:21:23;2.47;;;1.23;;
17504;SDS011;8870;50.950;11.762;2023-07-30T05:26:44;1.83;;;1.10;;
17504;SDS011;8870;50.950;11.762;2023-07-30T05:32:15;2.63;;;1.00;;
17504;SDS011;8870;50.950;11.762;2023-07-30T05:37:33;2.63;;;1.20;;
17504;SDS011;8870;50.950;11.762;2023-07-30T05:43:07;1.30;;;1.00;;
17504;SDS011;8870;50.950;11.762;2023-07-30T05:48:25;2.95;;;1.20;;
17504;SDS011;8870;50.950;11.762;2023-07-30T05:53:56;1.20;;;1.08;;
17504;SDS011;8870;50.950;11.762;2023-07-30T05:59:18;1.77;;;1.10;;
17504;SDS011;8870;50.950;11.762;2023-07-30T06:04:50;1.55;;;1.10;;
17504;SDS011;8870;50.950;11.762;2023-07-30T06:10:09;1.98;;;1.08;;
17504;SDS011;8870;50.950;11.762;2023-07-30T06:15:43;3.03;;;1.10;;
17504;SDS011;8870;50.950;11.762;2023-07-30T06:21:01;1.58;;;1.00;;
17504;SDS011;8870;50.950;11.762;2023-07-30T06:26:33;1.83;;;1.00;;
17504;SDS011;8870;50.950;11.762;2023-07-30T06:31:54;0.93;;;0.90;;
17504;SDS011;8870;50.950;11.762;2023-07-30T06:37:25;3.38;;;0.90;;
17504;SDS011;8870;50.950;11.762;2023-07-30T06:42:43;1.65;;;0.80;;
17504;SDS011;8870;50.950;11.762;2023-07-30T06:48:17;1.35;;;0.77;;
17504;SDS011;8870;50.950;11.762;2023-07-30T06:53:35;1.50;;;0.80;;
17504;SDS011;8870;50.950;11.762;2023-07-30T06:59:06;1.55;;;0.70;;
17504;SDS011;8870;50.950;11.762;2023-07-30T07:04:27;3.65;;;0.90;;
17504;SDS011;8870;50.950;11.762;2023-07-30T07:09:58;2.47;;;0.73;;
17504;SDS011;8870;50.950;11.762;2023-07-30T07:15:16;2.22;;;0.80;;
17504;SDS011;8870;50.950;11.762;2023-07-30T07:20:50;1.65;;;0.90;;
17504;SDS011;8870;50.950;11.762;2023-07-30T07:26:08;0.68;;;0.50;;
17504;SDS011;8870;50.950;11.762;2023-07-30T07:31:39;0.60;;;0.50;;
17504;SDS011;8870;50.950;11.762;2023-07-30T07:37:00;1.08;;;0.60;;
17504;SDS011;8870;50.950;11.762;2023-07-30T07:42:32;0.65;;;0.50;;
17504;SDS011;8870;50.950;11.762;2023-07-30T07:47:50;1.02;;;0.50;;
17504;SDS011;8870;50.950;11.762;2023-07-30T07:53:24;0.82;;;0.57;;
17504;SDS011;8870;50.950;11.762;2023-07-30T07:58:42;1.08;;;0.50;;
17504;SDS011;8870;50.950;11.762;2023-07-30T08:04:13;1.38;;;0.60;;
17504;SDS011;8870;50.950;11.762;2023-07-30T08:09:48;2.38;;;0.60;;
17504;SDS011;8870;50.950;11.762;2023-07-30T08:15:19;0.80;;;0.57;;
17504;SDS011;8870;50.950;11.762;2023-07-30T08:20:37;1.98;;;0.70;;
17504;SDS011;8870;50.950;11.762;2023-07-30T08:26:11;0.55;;;0.38;;
17504;SDS011;8870;50.950;11.762;2023-07-30T08:31:36;0.60;;;0.40;;
17504;SDS011;8870;50.950;11.762;2023-07-30T08:37:07;1.33;;;0.50;;
17504;SDS011;8870;50.950;11.762;2023-07-30T08:42:28;0.70;;;0.50;;
17504;SDS011;8870;50.950;11.762;2023-07-30T08:47:59;1.13;;;0.52;;
17504;SDS011;8870;50.950;11.762;2023-07-30T08:53:18;1.48;;;0.60;;
17504;SDS011;8870;50.950;11.762;2023-07-30T08:58:53;1.25;;;0.40;;
17504;SDS011;8870;50.950;11.762;2023-07-30T09:04:14;0.90;;;0.40;;
17504;SDS011;8870;50.950;11.762;2023-07-30T09:09:47;1.85;;;0.40;;
17504;SDS011;8870;50.950;11.762;2023-07-30T09:15:21;0.60;;;0.40;;
17504;SDS011;8870;50.950;11.762;2023-07-30T09:20:48;0.82;;;0.32;;
17504;SDS011;8870;50.950;11.762;2023-07-30T09:26:20;2.63;;;0.40;;
17504;SDS011;8870;50.950;11.762;2023-07-30T09:31:52;3.63;;;0.40;;
17504;SDS011;8870;50.950;11.762;2023-07-30T09:37:24;0.35;;;0.35;;
17504;SDS011;8870;50.950;11.762;2023-07-30T09:42:43;0.80;;;0.50;;
17504;SDS011;8870;50.950;11.762;2023-07-30T09:48:18;2.70;;;0.40;;
17504;SDS011;8870;50.950;11.762;2023-07-30T09:53:37;2.40;;;0.30;;
17504;SDS011;8870;50.950;11.762;2023-07-30T09:59:09;0.47;;;0.28;;
17504;SDS011;8870;50.950;11.762;2023-07-30T10:04:33;0.40;;;0.30;;
17504;SDS011;8870;50.950;11.762;2023-07-30T10:10:33;0.40;;;0.30;;
17504;SDS011;8870;50.950;11.762;2023-07-30T10:16:08;2.25;;;0.40;;
17504;SDS011;8870;50.950;11.762;2023-07-30T10:21:32;1.02;;;0.32;;
17504;SDS011;8870;50.950;11.762;2023-07-30T10:27:05;0.47;;;0.30;;
17504;SDS011;8870;50.950;11.762;2023-07-30T10:32:25;1.02;;;0.43;;
17504;SDS011;8870;50.950;11.762;2023-07-30T10:38:18;0.50;;;0.35;;
17504;SDS011;8870;50.950;11.762;2023-07-30T10:43:41;0.40;;;0.30;;
17504;SDS011;8870;50.950;11.762;2023-07-30T10:49:12;2.47;;;0.32;;
17504;SDS011;8870;50.950;11.762;2023-07-30T10:54:35;0.30;;;0.20;;
17504;SDS011;8870;50.950;11.762;2023-07-30T11:00:07;0.20;;;0.20;;
17504;SDS011;8870;50.950;11.762;2023-07-30T11:05:27;0.20;;;0.20;;
17504;SDS011;8870;50.950;11.762;2023-07-30T11:11:01;3.50;;;0.40;;
17504;SDS011;8870;50.950;11.762;2023-07-30T11:16:33;0.50;;;0.30;;
17504;SDS011;8870;50.950;11.762;2023-07-30T11:21:54;0.77;;;0.40;;
17504;SDS011;8870;50.950;11.762;2023-07-30T11:27:33;0.30;;;0.30;;
17504;SDS011;8870;50.950;11.762;2023-07-30T11:33:03;1.05;;;0.32;;
17504;SDS011;8870;50.950;11.762;2023-07-30T11:38:33;0.22;;;0.20;;
17504;SDS011;8870;50.950;11.762;2023-07-30T11:43:55;0.30;;;0.30;;
17504;SDS011;8870;50.950;11.762;2023-07-30T11:49:28;0.85;;;0.40;;
17504;SDS011;8870;50.950;11.762;2023-07-30T11:54:46;0.50;;;0.30;;
17504;SDS011;8870;50.950;11.762;2023-07-30T12:00:22;1.73;;;0.38;;
17504;SDS011;8870;50.950;11.762;2023-07-30T12:11:11;0.47;;;0.38;;
17504;SDS011;8870;50.950;11.762;2023-07-30T12:16:46;0.73;;;0.25;;
17504;SDS011;8870;50.950;11.762;2023-07-30T12:22:05;2.10;;;0.50;;
17504;SDS011;8870;50.950;11.762;2023-07-30T12:27:36;1.48;;;0.40;;
17504;SDS011;8870;50.950;11.762;2023-07-30T12:32:57;0.82;;;0.50;;
17504;SDS011;8870;50.950;11.762;2023-07-30T12:38:29;3.13;;;0.50;;
17504;SDS011;8870;50.950;11.762;2023-07-30T12:43:47;6.97;;;1.05;;
17504;SDS011;8870;50.950;11.762;2023-07-30T12:49:21;2.58;;;0.60;;
17504;SDS011;8870;50.950;11.762;2023-07-30T12:54:40;1.27;;;0.40;;
17504;SDS011;8870;50.950;11.762;2023-07-30T13:00:11;1.15;;;0.50;;
17504;SDS011;8870;50.950;11.762;2023-07-30T13:05:32;2.22;;;0.60;;
17504;SDS011;8870;50.950;11.762;2023-07-30T13:11:04;4.00;;;0.50;;
17504;SDS011;8870;50.950;11.762;2023-07-30T13:16:22;0.45;;;0.43;;
17504;SDS011;8870;50.950;11.762;2023-07-30T13:21:56;0.57;;;0.47;;
17504;SDS011;8870;50.950;11.762;2023-07-30T13:27:15;2.42;;;0.38;;
17504;SDS011;8870;50.950;11.762;2023-07-30T13:32:52;0.98;;;0.30;;
17504;SDS011;8870;50.950;11.762;2023-07-30T13:38:12;0.30;;;0.30;;
17504;SDS011;8870;50.950;11.762;2023-07-30T13:43:47;0.57;;;0.40;;
17504;SDS011;8870;50.950;11.762;2023-07-30T13:49:18;0.80;;;0.47;;
17504;SDS011;8870;50.950;11.762;2023-07-30T13:54:48;1.48;;;0.40;;
17504;SDS011;8870;50.950;11.762;2023-07-30T14:00:21;1.25;;;0.38;;
17504;SDS011;8870;50.950;11.762;2023-07-30T14:05:40;0.75;;;0.50;;
17504;SDS011;8870;50.950;11.762;2023-07-30T14:11:15;6.43;;;1.77;;
17504;SDS011;8870;50.950;11.762;2023-07-30T14:16:34;2.50;;;0.63;;
17504;SDS011;8870;50.950;11.762;2023-07-30T14:22:10;3.17;;;0.85;;
17504;SDS011;8870;50.950;11.762;2023-07-30T14:27:30;4.90;;;0.90;;
17504;SDS011;8870;50.950;11.762;2023-07-30T14:33:02;1.42;;;0.80;;
17504;SDS011;8870;50.950;11.762;2023-07-30T14:38:21;1.40;;;0.80;;
17504;SDS011;8870;50.950;11.762;2023-07-30T14:43:55;3.90;;;0.85;;
17504;SDS011;8870;50.950;11.762;2023-07-30T14:49:14;2.17;;;0.80;;
17504;SDS011;8870;50.950;11.762;2023-07-30T14:54:45;1.70;;;0.75;;
17504;SDS011;8870;50.950;11.762;2023-07-30T15:00:06;1.52;;;0.75;;
17504;SDS011;8870;50.950;11.762;2023-07-30T15:05:39;1.77;;;1.00;;
17504;SDS011;8870;50.950;11.762;2023-07-30T15:10:57;2.35;;;1.00;;
17504;SDS011;8870;50.950;11.762;2023-07-30T15:16:30;2.30;;;1.00;;
17504;SDS011;8870;50.950;11.762;2023-07-30T15:21:49;2.22;;;0.98;;
17504;SDS011;8870;50.950;11.762;2023-07-30T15:27:21;1.27;;;0.90;;
17504;SDS011;8870;50.950;11.762;2023-07-30T15:32:43;2.85;;;1.10;;
17504;SDS011;8870;50.950;11.762;2023-07-30T15:38:15;2.67;;;1.20;;
17504;SDS011;8870;50.950;11.762;2023-07-30T15:43:33;1.60;;;1.02;;
17504;SDS011;8870;50.950;11.762;2023-07-30T15:49:06;4.45;;;0.98;;
17504;SDS011;8870;50.950;11.762;2023-07-30T15:54:32;1.65;;;1.00;;
17504;SDS011;8870;50.950;11.762;2023-07-30T16:00:04;2.17;;;1.00;;
17504;SDS011;8870;50.950;11.762;2023-07-30T16:05:26;2.15;;;0.90;;
17504;SDS011;8870;50.950;11.762;2023-07-30T16:11:01;2.90;;;1.00;;
17504;SDS011;8870;50.950;11.762;2023-07-30T16:16:20;0.98;;;0.70;;
17504;SDS011;8870;50.950;11.762;2023-07-30T16:21:53;2.67;;;1.02;;
17504;SDS011;8870;50.950;11.762;2023-07-30T16:27:12;2.10;;;0.77;;
17504;SDS011;8870;50.950;11.762;2023-07-30T16:32:44;1.23;;;0.73;;
17504;SDS011;8870;50.950;11.762;2023-07-30T16:38:04;2.03;;;0.80;;
17504;SDS011;8870;50.950;11.762;2023-07-30T16:43:36;4.55;;;0.90;;
17504;SDS011;8870;50.950;11.762;2023-07-30T16:48:54;1.27;;;0.77;;
17504;SDS011;8870;50.950;11.762;2023-07-30T16:54:27;2.08;;;0.90;;
17504;SDS011;8870;50.950;11.762;2023-07-30T16:59:46;1.17;;;0.70;;
17504;SDS011;8870;50.950;11.762;2023-07-30T17:05:17;2.35;;;0.90;;
17504;SDS011;8870;50.950;11.762;2023-07-30T17:10:37;1.88;;;0.80;;
17504;SDS011;8870;50.950;11.762;2023-07-30T17:16:09;1.48;;;0.73;;
17504;SDS011;8870;50.950;11.762;2023-07-30T17:21:31;2.05;;;0.80;;
17504;SDS011;8870;50.950;11.762;2023-07-30T17:27:05;1.92;;;0.88;;
17504;SDS011;8870;50.950;11.762;2023-07-30T17:32:26;3.30;;;0.77;;
17504;SDS011;8870;50.950;11.762;2023-07-30T17:37:58;2.47;;;0.90;;
17504;SDS011;8870;50.950;11.762;2023-07-30T17:43:18;3.22;;;1.10;;
17504;SDS011;8870;50.950;11.762;2023-07-30T17:48:51;2.75;;;0.75;;
17504;SDS011;8870;50.950;11.762;2023-07-30T17:54:09;2.22;;;0.80;;
17504;SDS011;8870;50.950;11.762;2023-07-30T17:59:42;2.40;;;0.80;;
17504;SDS011;8870;50.950;11.762;2023-07-30T18:05:01;2.58;;;0.90;;
17504;SDS011;8870;50.950;11.762;2023-07-30T18:10:36;2.97;;;1.20;;
17504;SDS011;8870;50.950;11.762;2023-07-30T18:15:56;2.20;;;0.90;;
17504;SDS011;8870;50.950;11.762;2023-07-30T18:21:28;2.15;;;1.00;;
17504;SDS011;8870;50.950;11.762;2023-07-30T18:26:46;3.70;;;0.82;;
17504;SDS011;8870;50.950;11.762;2023-07-30T18:32:19;2.78;;;1.02;;
17504;SDS011;8870;50.950;11.762;2023-07-30T18:37:38;2.15;;;0.90;;
17504;SDS011;8870;50.950;11.762;2023-07-30T18:43:09;3.30;;;0.98;;
17504;SDS011;8870;50.950;11.762;2023-07-30T18:48:34;4.15;;;0.90;;
17504;SDS011;8870;50.950;11.762;2023-07-30T18:54:06;3.40;;;0.90;;
17504;SDS011;8870;50.950;11.762;2023-07-30T18:59:24;3.08;;;1.02;;
17504;SDS011;8870;50.950;11.762;2023-07-30T19:04:57;2.55;;;0.93;;
17504;SDS011;8870;50.950;11.762;2023-07-30T19:10:23;3.20;;;0.90;;
17504;SDS011;8870;50.950;11.762;2023-07-30T19:15:54;2.22;;;0.90;;
17504;SDS011;8870;50.950;11.762;2023-07-30T19:21:15;2.42;;;0.90;;
17504;SDS011;8870;50.950;11.762;2023-07-30T19:26:46;2.45;;;0.85;;
17504;SDS011;8870;50.950;11.762;2023-07-30T19:32:06;2.53;;;0.98;;
17504;SDS011;8870;50.950;11.762;2023-07-30T19:37:40;2.30;;;1.10;;
17504;SDS011;8870;50.950;11.762;2023-07-30T19:42:59;2.22;;;0.77;;
17504;SDS011;8870;50.950;11.762;2023-07-30T19:48:30;2.83;;;1.10;;
17504;SDS011;8870;50.950;11.762;2023-07-30T19:53:52;3.33;;;1.10;;
17504;SDS011;8870;50.950;11.762;2023-07-30T19:59:23;4.93;;;1.00;;
17504;SDS011;8870;50.950;11.762;2023-07-30T20:04:41;1.80;;;0.80;;
17504;SDS011;8870;50.950;11.762;2023-07-30T20:10:15;3.60;;;1.30;;
17504;SDS011;8870;50.950;11.762;2023-07-30T20:15:34;4.20;;;1.10;;
17504;SDS011;8870;50.950;11.762;2023-07-30T20:21:06;5.53;;;1.13;;
17504;SDS011;8870;50.950;11.762;2023-07-30T20:26:28;5.40;;;1.10;;
17504;SDS011;8870;50.950;11.762;2023-07-30T20:31:59;3.55;;;1.00;;
17504;SDS011;8870;50.950;11.762;2023-07-30T20:37:17;2.42;;;0.82;;
17504;SDS011;8870;50.950;11.762;2023-07-30T20:42:51;3.65;;;0.90;;
17504;SDS011;8870;50.950;11.762;2023-07-30T20:48:10;2.38;;;0.80;;
17504;SDS011;8870;50.950;11.762;2023-07-30T20:53:41;2.20;;;0.90;;
17504;SDS011;8870;50.950;11.762;2023-07-30T20:59:02;2.30;;;0.85;;
17504;SDS011;8870;50.950;11.762;2023-07-30T21:04:33;3.58;;;1.10;;
17504;SDS011;8870;50.950;11.762;2023-07-30T21:09:51;2.33;;;0.95;;
17504;SDS011;8870;50.950;11.762;2023-07-30T21:15:24;5.53;;;1.20;;
17504;SDS011;8870;50.950;11.762;2023-07-30T21:20:43;2.83;;;1.13;;
17504;SDS011;8870;50.950;11.762;2023-07-30T21:26:14;3.10;;;1.00;;
17504;SDS011;8870;50.950;11.762;2023-07-30T21:31:35;2.35;;;0.95;;
17504;SDS011;8870;50.950;11.762;2023-07-30T21:37:06;2.15;;;0.90;;
17504;SDS011;8870;50.950;11.762;2023-07-30T21:42:24;2.95;;;0.90;;
17504;SDS011;8870;50.950;11.762;2023-07-30T21:47:58;3.47;;;0.90;;
17504;SDS011;8870;50.950;11.762;2023-07-30T21:53:17;2.13;;;1.10;;
17504;SDS011;8870;50.950;11.762;2023-07-30T21:58:49;4.18;;;1.20;;
17504;SDS011;8870;50.950;11.762;2023-07-30T22:04:10;2.35;;;1.00;;
17504;SDS011;8870;50.950;11.762;2023-07-30T22:09:41;4.25;;;1.17;;
17504;SDS011;8870;50.950;11.762;2023-07-30T22:15:16;3.38;;;1.00;;
17504;SDS011;8870;50.950;11.762;2023-07-30T22:20:37;2.97;;;0.98;;
17504;SDS011;8870;50.950;11.762;2023-07-30T22:26:08;5.15;;;1.00;;
17504;SDS011;8870;50.950;11.762;2023-07-30T22:31:26;3.30;;;1.10;;
17504;SDS011;8870;50.950;11.762;2023-07-30T22:37:00;2.50;;;1.10;;
17504;SDS011;8870;50.950;11.762;2023-07-30T22:42:18;1.92;;;0.98;;
17504;SDS011;8870;50.950;11.762;2023-07-30T22:47:50;2.00;;;0.77;;
17504;SDS011;8870;50.950;11.762;2023-07-30T22:53:11;2.20;;;0.85;;
17504;SDS011;8870;50.950;11.762;2023-07-30T22:58:42;3.15;;;0.95;;
17504;SDS011;8870;50.950;11.762;2023-07-30T23:04:00;2.72;;;0.90;;
17504;SDS011;8870;50.950;11.762;2023-07-30T23:09:33;1.45;;;0.82;;
17504;SDS011;8870;50.950;11.762;2023-07-30T23:14:52;2.67;;;1.08;;
17504;SDS011;8870;50.950;11.762;2023-07-30T23:20:24;2.08;;;0.90;;
17504;SDS011;8870;50.950;11.762;2023-07-30T23:25:45;3.88;;;1.00;;
17504;SDS011;8870;50.950;11.762;2023-07-30T23:31:16;3.47;;;0.95;;
17504;SDS011;8870;50.950;11.762;2023-07-30T23:36:34;2.28;;;0.70;;
17504;SDS011;8870;50.950;11.762;2023-07-30T23:42:08;3.22;;;1.00;;
17504;SDS011;8870;50.950;11.762;2023-07-30T23:47:26;1.98;;;0.85;;
17504;SDS011;8870;50.950;11.762;2023-07-30T23:52:57;3.33;;;1.13;;
17504;SDS011;8870;50.950;11.762;2023-07-30T23:58:18;1.90;;;0.95;;
